createdAt,value
2022-10-18T00:01:10.994Z,97.68
2022-10-18T00:03:39.683Z,97.82
2022-10-18T00:06:11.784Z,97.12
2022-10-18T00:08:39.773Z,97.24
2022-10-18T00:11:08.536Z,95.78
2022-10-18T00:13:37.775Z,95.28
2022-10-18T00:16:15.111Z,95.58
2022-10-18T00:18:44.234Z,98.19
2022-10-18T00:21:19.034Z,95.67
2022-10-18T00:23:48.894Z,96.79
2022-10-18T00:26:20.545Z,95.29
2022-10-18T00:28:53.709Z,95.64
2022-10-18T00:31:26.806Z,93.74
2022-10-18T00:33:58.284Z,94.00
2022-10-18T00:36:28.750Z,94.20
2022-10-18T00:38:57.250Z,93.50
2022-10-18T00:41:29.733Z,94.18
2022-10-18T00:44:02.309Z,93.71
2022-10-18T00:46:34.084Z,92.57
2022-10-18T00:49:07.534Z,93.01
2022-10-18T00:51:42.603Z,92.59
2022-10-18T00:54:11.474Z,93.28
2022-10-18T00:56:39.935Z,94.21
2022-10-18T00:59:08.511Z,93.65
2022-10-18T01:01:37.903Z,93.16
2022-10-18T01:04:05.975Z,93.28
2022-10-18T01:06:50.576Z,93.64
2022-10-18T01:09:29.739Z,93.29
2022-10-18T01:12:20.471Z,93.16
2022-10-18T01:15:03.411Z,93.59
2022-10-18T01:17:44.346Z,92.24
2022-10-18T01:21:06.804Z,92.58
2022-10-18T01:24:01.461Z,92.51
2022-10-18T01:27:01.790Z,92.89
2022-10-18T01:29:50.709Z,92.69
2022-10-18T01:32:26.576Z,92.60
2022-10-18T01:35:03.939Z,94.78
2022-10-18T01:37:35.404Z,95.32
2022-10-18T01:40:07.636Z,93.80
2022-10-18T01:42:35.519Z,93.66
2022-10-18T01:45:08.428Z,93.52
2022-10-18T01:47:39.254Z,93.23
2022-10-18T01:50:08.298Z,92.77
2022-10-18T01:52:36.334Z,93.07
2022-10-18T01:55:07.150Z,93.67
2022-10-18T01:57:41.455Z,93.19
2022-10-18T02:00:17.461Z,93.34
2022-10-18T02:02:54.288Z,93.31
2022-10-18T02:05:33.249Z,92.98
2022-10-18T02:08:23.241Z,93.78
2022-10-18T02:10:58.734Z,93.98
2022-10-18T02:13:34.291Z,93.71
2022-10-18T02:16:13.020Z,95.27
2022-10-18T02:18:49.904Z,94.77
2022-10-18T02:21:24.633Z,95.37
2022-10-18T02:23:53.089Z,95.12
2022-10-18T02:26:21.312Z,94.65
2022-10-18T02:28:50.289Z,94.90
2022-10-18T02:31:26.372Z,95.26
2022-10-18T02:34:02.369Z,95.21
2022-10-18T02:36:38.122Z,95.61
2022-10-18T02:39:16.661Z,93.80
2022-10-18T02:41:45.038Z,96.00
2022-10-18T02:44:13.231Z,95.67
2022-10-18T02:46:42.838Z,94.83
2022-10-18T02:49:11.979Z,95.17
2022-10-18T02:51:39.791Z,97.08
2022-10-18T02:54:08.442Z,95.01
2022-10-18T02:56:36.664Z,95.11
2022-10-18T02:59:07.227Z,93.43
2022-10-18T03:01:36.668Z,93.10
2022-10-18T03:04:05.331Z,92.72
2022-10-18T03:06:35.159Z,92.87
2022-10-18T03:09:04.591Z,92.46
2022-10-18T03:11:32.779Z,92.13
2022-10-18T03:14:01.809Z,91.13
2022-10-18T03:16:29.977Z,91.20
2022-10-18T03:18:57.923Z,91.36
2022-10-18T03:21:26.036Z,90.66
2022-10-18T03:23:56.015Z,90.59
2022-10-18T03:26:24.084Z,89.63
2022-10-18T03:28:52.163Z,89.90
2022-10-18T03:31:20.426Z,90.51
2022-10-18T03:33:48.593Z,91.17
2022-10-18T03:36:18.356Z,91.50
2022-10-18T03:38:46.572Z,91.18
2022-10-18T03:41:15.720Z,91.05
2022-10-18T03:43:43.741Z,91.42
2022-10-18T03:46:11.649Z,91.00
2022-10-18T03:48:39.465Z,90.53
2022-10-18T03:51:07.612Z,91.27
2022-10-18T03:53:44.377Z,90.59
2022-10-18T03:56:12.242Z,89.53
2022-10-18T03:58:41.344Z,89.86
2022-10-18T04:01:09.330Z,92.21
2022-10-18T04:03:37.217Z,92.64
2022-10-18T04:06:05.252Z,93.30
2022-10-18T04:08:33.091Z,92.79
2022-10-18T04:11:08.243Z,93.34
2022-10-18T04:13:36.305Z,95.35
2022-10-18T04:16:05.995Z,94.26
2022-10-18T04:18:33.763Z,94.55
2022-10-18T04:21:01.705Z,93.58
2022-10-18T04:23:31.800Z,95.37
2022-10-18T04:26:02.086Z,96.35
2022-10-18T04:28:36.229Z,97.56
2022-10-18T04:31:06.408Z,95.58
2022-10-18T04:33:34.377Z,96.00
2022-10-18T04:36:03.573Z,94.05
2022-10-18T04:38:31.573Z,94.17
2022-10-18T04:40:59.431Z,96.83
2022-10-18T04:43:28.716Z,97.35
2022-10-18T04:45:56.816Z,97.49
2022-10-18T04:48:26.776Z,98.23
2022-10-18T04:50:54.625Z,100.00
2022-10-18T04:53:25.832Z,99.80
2022-10-18T04:55:54.061Z,98.97
2022-10-18T04:58:22.044Z,100.00
2022-10-18T05:00:50.720Z,100.00
2022-10-18T05:03:20.685Z,99.67
2022-10-18T05:06:01.374Z,99.63
2022-10-18T05:08:32.865Z,99.38
2022-10-18T05:11:01.721Z,98.99
2022-10-18T05:13:30.730Z,100.00
2022-10-18T05:16:00.126Z,99.59
2022-10-18T05:18:28.071Z,100.00
2022-10-18T05:20:57.465Z,100.00
2022-10-18T05:23:25.852Z,100.00
2022-10-18T05:25:54.248Z,100.00
2022-10-18T05:28:41.750Z,100.00
2022-10-18T05:31:12.008Z,100.00
2022-10-18T05:33:40.572Z,100.00
2022-10-18T05:36:10.571Z,100.00
2022-10-18T05:38:41.858Z,100.00
2022-10-18T05:41:10.714Z,100.00
2022-10-18T05:43:39.275Z,100.00
2022-10-18T05:46:13.681Z,100.00
2022-10-18T05:48:44.041Z,100.00
2022-10-18T05:51:13.194Z,100.00
2022-10-18T05:53:41.135Z,100.00
2022-10-18T05:56:12.418Z,100.00
2022-10-18T05:58:41.552Z,100.00
2022-10-18T06:01:10.428Z,100.00
2022-10-18T06:03:38.599Z,100.00
2022-10-18T06:06:11.179Z,100.00
2022-10-18T06:08:42.260Z,100.00
2022-10-18T06:11:20.730Z,100.00
2022-10-18T06:13:51.406Z,100.00
2022-10-18T06:16:22.855Z,100.00
2022-10-18T06:18:53.905Z,100.00
2022-10-18T06:21:23.292Z,100.00
2022-10-18T06:23:54.788Z,100.00
2022-10-18T06:26:23.146Z,100.00
2022-10-18T06:28:51.447Z,100.00
2022-10-18T06:31:22.304Z,100.00
2022-10-18T06:33:50.525Z,100.00
2022-10-18T06:36:23.982Z,100.00
2022-10-18T06:38:56.226Z,100.00
2022-10-18T06:41:24.299Z,100.00
2022-10-18T06:43:56.919Z,100.00
2022-10-18T06:46:25.692Z,100.00
2022-10-18T06:48:53.678Z,100.00
2022-10-18T06:51:22.567Z,100.00
2022-10-18T06:54:13.002Z,100.00
2022-10-18T06:56:41.331Z,100.00
2022-10-18T06:59:09.337Z,100.00
2022-10-18T07:01:38.294Z,100.00
2022-10-18T07:04:07.336Z,100.00
2022-10-18T07:06:37.968Z,100.00
2022-10-18T07:09:05.863Z,100.00
2022-10-18T07:11:33.674Z,100.00
2022-10-18T07:14:05.126Z,100.00
2022-10-18T07:16:34.673Z,100.00
2022-10-18T07:19:03.140Z,100.00
2022-10-18T07:21:31.745Z,100.00
2022-10-18T07:24:01.382Z,100.00
2022-10-18T07:26:33.106Z,100.00
2022-10-18T07:29:07.991Z,100.00
2022-10-18T07:31:38.489Z,100.00
2022-10-18T07:34:07.815Z,100.00
2022-10-18T07:36:37.222Z,100.00
2022-10-18T07:39:05.924Z,100.00
2022-10-18T07:41:36.057Z,100.00
2022-10-18T07:44:05.775Z,100.00
2022-10-18T07:46:34.050Z,100.00
2022-10-18T07:49:01.960Z,100.00
2022-10-18T07:51:32.652Z,100.00
2022-10-18T07:54:00.407Z,100.00
2022-10-18T07:56:29.531Z,100.00
2022-10-18T07:58:57.521Z,100.00
2022-10-18T08:01:31.571Z,100.00
2022-10-18T08:04:06.101Z,100.00
2022-10-18T08:06:36.671Z,100.00
2022-10-18T08:09:05.850Z,100.00
2022-10-18T08:11:35.947Z,99.31
2022-10-18T08:14:04.882Z,98.50
2022-10-18T08:16:34.635Z,100.00
2022-10-18T08:19:02.623Z,100.00
2022-10-18T08:21:30.767Z,100.00
2022-10-18T08:23:58.715Z,100.00
2022-10-18T08:26:26.974Z,99.24
2022-10-18T08:29:10.265Z,96.56
2022-10-18T08:31:44.576Z,96.64
2022-10-18T08:34:17.192Z,97.68
2022-10-18T08:36:50.953Z,92.76
2022-10-18T08:39:19.443Z,91.02
2022-10-18T08:42:16.077Z,91.03
2022-10-18T08:44:48.693Z,89.75
2022-10-18T08:47:21.650Z,87.94
2022-10-18T08:49:54.825Z,88.11
2022-10-18T08:52:33.401Z,88.05
2022-10-18T08:55:08.029Z,86.40
2022-10-18T08:57:36.313Z,85.67
2022-10-18T09:00:17.085Z,84.55
2022-10-18T09:03:15.586Z,82.88
2022-10-18T09:05:52.773Z,82.60
2022-10-18T09:08:49.852Z,81.64
2022-10-18T09:11:47.138Z,82.49
2022-10-18T09:14:57.330Z,82.40
2022-10-18T09:17:43.330Z,80.07
2022-10-18T09:20:22.434Z,81.42
2022-10-18T09:22:56.301Z,83.74
2022-10-18T09:25:29.522Z,81.37
2022-10-18T09:28:16.360Z,77.95
2022-10-18T09:30:59.456Z,77.21
2022-10-18T09:33:46.945Z,77.12
2022-10-18T09:36:21.736Z,77.86
2022-10-18T09:38:58.545Z,78.24
2022-10-18T09:41:40.872Z,76.22
2022-10-18T09:44:19.865Z,75.43
2022-10-18T09:46:55.799Z,74.40
2022-10-18T09:49:30.477Z,74.63
2022-10-18T09:52:08.023Z,71.79
2022-10-18T09:54:44.312Z,71.11
2022-10-18T09:57:23.460Z,70.14
2022-10-18T09:59:51.465Z,69.59
2022-10-18T10:02:23.195Z,68.06
2022-10-18T10:04:54.060Z,69.36
2022-10-18T10:07:29.931Z,69.21
2022-10-18T10:10:13.377Z,69.58
2022-10-18T10:12:43.947Z,68.07
2022-10-18T10:15:22.586Z,67.19
2022-10-18T10:18:00.229Z,64.26
2022-10-18T10:20:37.022Z,61.87
2022-10-18T10:23:20.323Z,59.86
2022-10-18T10:25:53.110Z,58.72
2022-10-18T10:28:28.840Z,56.24
2022-10-18T10:31:25.679Z,56.96
2022-10-18T10:34:01.701Z,53.86
2022-10-18T10:36:31.545Z,53.20
2022-10-18T10:39:12.631Z,54.22
2022-10-18T10:41:41.618Z,51.83
2022-10-18T10:44:17.451Z,51.53
2022-10-18T10:46:48.601Z,50.49
2022-10-18T10:49:39.634Z,50.82
2022-10-18T10:52:27.794Z,49.06
2022-10-18T10:55:33.982Z,49.21
2022-10-18T10:58:03.193Z,47.53
2022-10-18T11:00:40.637Z,48.03
2022-10-18T11:03:27.939Z,47.99
2022-10-18T11:06:00.300Z,47.09
2022-10-18T11:08:36.017Z,47.13
2022-10-18T11:11:22.886Z,46.68
2022-10-18T11:14:13.803Z,47.26
2022-10-18T11:16:58.780Z,47.74
2022-10-18T11:19:39.264Z,49.34
2022-10-18T11:22:17.258Z,48.24
2022-10-18T11:24:48.100Z,48.99
2022-10-18T11:27:27.424Z,47.68
2022-10-18T11:30:21.661Z,47.98
2022-10-18T11:33:10.094Z,49.02
2022-10-18T11:35:50.181Z,49.12
2022-10-18T11:38:37.289Z,49.51
2022-10-18T11:41:37.517Z,48.85
2022-10-18T11:44:24.822Z,50.12
2022-10-18T11:47:08.411Z,51.92
2022-10-18T11:49:55.704Z,51.74
2022-10-18T11:52:39.552Z,52.22
2022-10-18T11:55:39.981Z,54.12
2022-10-18T11:58:31.875Z,54.65
2022-10-18T12:01:13.122Z,56.67
2022-10-18T12:03:59.360Z,54.95
2022-10-18T12:06:34.963Z,53.72
2022-10-18T12:09:14.495Z,52.02
2022-10-18T12:11:55.502Z,53.06
2022-10-18T12:14:29.750Z,52.83
2022-10-18T12:17:41.702Z,51.79
2022-10-18T12:19:59.301Z,51.40
2022-10-18T12:22:36.170Z,49.44
2022-10-18T12:25:04.912Z,47.31
2022-10-18T12:27:40.939Z,45.96
2022-10-18T12:30:24.749Z,44.61
2022-10-18T12:33:26.758Z,41.57
2022-10-18T12:36:11.473Z,41.19
2022-10-18T12:38:45.378Z,40.75
2022-10-18T12:41:22.296Z,40.37
2022-10-18T12:43:58.940Z,40.58
2022-10-18T12:46:46.795Z,41.78
2022-10-18T12:49:27.399Z,42.67
2022-10-18T12:51:59.565Z,41.96
2022-10-18T12:54:31.233Z,41.89
2022-10-18T12:57:01.908Z,40.99
2022-10-18T12:59:51.070Z,41.37
2022-10-18T13:02:31.575Z,41.39
2022-10-18T13:05:33.790Z,41.74
2022-10-18T13:08:41.878Z,42.62
2022-10-18T13:11:33.348Z,42.85
2022-10-18T13:14:59.094Z,42.65
2022-10-18T13:17:43.565Z,40.59
2022-10-18T13:20:38.528Z,41.62
2022-10-18T13:23:33.968Z,40.93
2022-10-18T13:26:21.793Z,40.69
2022-10-18T13:29:05.148Z,40.06
2022-10-18T13:31:43.541Z,38.96
2022-10-18T13:34:25.857Z,38.88
2022-10-18T13:37:01.821Z,37.38
2022-10-18T13:39:32.198Z,37.48
2022-10-18T13:42:32.156Z,37.41
2022-10-18T13:45:44.471Z,37.16
2022-10-18T13:48:48.311Z,36.32
2022-10-18T13:51:48.366Z,35.44
2022-10-18T13:54:55.926Z,34.74
2022-10-18T13:57:51.531Z,35.10
2022-10-18T14:00:55.311Z,34.42
2022-10-18T14:03:57.614Z,35.31
2022-10-18T14:06:34.592Z,35.23
2022-10-18T14:09:25.685Z,35.98
2022-10-18T14:12:19.025Z,36.54
2022-10-18T14:14:56.775Z,38.08
2022-10-18T14:17:35.095Z,36.94
2022-10-18T14:20:17.214Z,36.80
2022-10-18T14:22:53.486Z,37.34
2022-10-18T14:25:27.636Z,37.12
2022-10-18T14:28:13.960Z,38.08
2022-10-18T14:30:54.730Z,38.79
2022-10-18T14:33:31.604Z,39.71
2022-10-18T14:36:05.597Z,39.97
2022-10-18T14:38:36.330Z,40.84
2022-10-18T14:41:07.095Z,42.10
2022-10-18T14:44:21.058Z,42.50
2022-10-18T14:46:52.596Z,40.81
2022-10-18T14:49:21.803Z,40.66
2022-10-18T14:51:52.825Z,39.26
2022-10-18T14:54:30.666Z,39.87
2022-10-18T14:57:01.254Z,39.40
2022-10-18T14:59:37.593Z,39.65
2022-10-18T15:02:15.155Z,39.39
2022-10-18T15:04:45.908Z,39.00
2022-10-18T15:07:17.475Z,39.22
2022-10-18T15:09:47.321Z,39.74
2022-10-18T15:12:17.344Z,39.14
2022-10-18T15:14:48.317Z,39.65
2022-10-18T15:17:22.173Z,39.79
2022-10-18T15:19:59.423Z,40.10
2022-10-18T15:22:33.058Z,40.55
2022-10-18T15:25:16.895Z,40.88
2022-10-18T15:27:49.680Z,41.18
2022-10-18T15:30:27.760Z,42.38
2022-10-18T15:32:59.657Z,42.94
2022-10-18T15:35:31.870Z,43.51
2022-10-18T15:38:12.475Z,43.74
2022-10-18T15:40:42.479Z,44.17
2022-10-18T15:43:36.742Z,43.66
2022-10-18T15:46:07.087Z,43.84
2022-10-18T15:48:38.516Z,43.80
2022-10-18T15:51:10.161Z,43.67
2022-10-18T15:53:52.010Z,43.54
2022-10-18T15:56:38.276Z,43.90
2022-10-18T15:59:22.137Z,43.65
2022-10-18T16:01:58.941Z,45.07
2022-10-18T16:04:34.545Z,45.16
2022-10-18T16:07:02.278Z,45.47
2022-10-18T16:09:30.066Z,45.40
2022-10-18T16:11:58.460Z,46.33
2022-10-18T16:14:27.020Z,46.64
2022-10-18T16:17:07.115Z,47.44
2022-10-18T16:19:34.875Z,48.42
2022-10-18T16:22:06.593Z,49.20
2022-10-18T16:24:35.314Z,49.94
2022-10-18T16:27:03.340Z,50.55
2022-10-18T16:29:33.187Z,51.19
2022-10-18T16:32:02.339Z,51.98
2022-10-18T16:34:32.054Z,52.51
2022-10-18T16:37:00.054Z,53.26
2022-10-18T16:39:29.841Z,53.67
2022-10-18T16:41:57.598Z,54.12
2022-10-18T16:44:25.436Z,54.69
2022-10-18T16:46:56.315Z,55.08
2022-10-18T16:49:26.645Z,55.78
2022-10-18T16:51:55.246Z,56.35
2022-10-18T16:54:23.580Z,56.95
2022-10-18T16:56:51.396Z,57.40
2022-10-18T16:59:25.736Z,57.65
2022-10-18T17:01:53.625Z,58.34
2022-10-18T17:04:21.533Z,58.28
2022-10-18T17:06:54.256Z,58.65
2022-10-18T17:09:21.977Z,59.03
2022-10-18T17:11:49.810Z,59.51
2022-10-18T17:14:17.541Z,60.18
2022-10-18T17:16:48.287Z,60.56
2022-10-18T17:19:36.590Z,61.04
2022-10-18T17:22:05.706Z,61.82
2022-10-18T17:24:34.138Z,62.58
2022-10-18T17:27:02.084Z,63.10
2022-10-18T17:29:29.819Z,64.45
2022-10-18T17:31:57.585Z,64.47
2022-10-18T17:34:25.736Z,65.63
2022-10-18T17:36:54.218Z,66.25
2022-10-18T17:39:23.353Z,66.42
2022-10-18T17:41:51.065Z,68.22
2022-10-18T17:44:18.800Z,68.75
2022-10-18T17:46:46.558Z,69.56
2022-10-18T17:49:15.449Z,71.06
2022-10-18T17:51:46.341Z,71.10
2022-10-18T17:54:14.175Z,72.05
2022-10-18T17:56:45.048Z,72.28
2022-10-18T17:59:12.818Z,72.99
2022-10-18T18:01:40.668Z,73.28
2022-10-18T18:04:08.496Z,74.20
2022-10-18T18:06:39.031Z,74.59
2022-10-18T18:09:13.961Z,74.86
2022-10-18T18:11:45.420Z,74.77
2022-10-18T18:14:13.224Z,74.69
2022-10-18T18:16:44.077Z,75.84
2022-10-18T18:19:13.568Z,76.69
2022-10-18T18:21:42.704Z,77.79
2022-10-18T18:24:11.795Z,77.43
2022-10-18T18:26:41.395Z,77.75
2022-10-18T18:29:12.783Z,77.79
2022-10-18T18:31:43.758Z,78.41
2022-10-18T18:34:12.463Z,78.86
2022-10-18T18:36:42.750Z,80.36
2022-10-18T18:39:20.279Z,80.23
2022-10-18T18:42:06.937Z,81.18
2022-10-18T18:44:37.765Z,81.53
2022-10-18T18:47:10.873Z,82.23
2022-10-18T18:49:41.091Z,81.62
2022-10-18T18:52:08.832Z,81.17
2022-10-18T18:54:36.816Z,81.43
2022-10-18T18:57:05.291Z,81.75
2022-10-18T18:59:33.024Z,83.02
2022-10-18T19:02:02.168Z,83.34
2022-10-18T19:04:30.514Z,82.63
2022-10-18T19:06:58.261Z,81.92
2022-10-18T19:09:27.302Z,83.38
2022-10-18T19:11:56.526Z,82.08
2022-10-18T19:14:25.711Z,82.23
2022-10-18T19:16:55.429Z,83.17
2022-10-18T19:19:26.541Z,82.93
2022-10-18T19:21:56.758Z,84.41
2022-10-18T19:24:27.583Z,85.60
2022-10-18T19:26:57.261Z,85.29
2022-10-18T19:29:29.350Z,86.36
2022-10-18T19:32:00.120Z,86.38
2022-10-18T19:34:31.789Z,86.32
2022-10-18T19:37:00.654Z,86.41
2022-10-18T19:39:30.432Z,87.81
2022-10-18T19:42:18.689Z,88.14
2022-10-18T19:44:50.489Z,87.15
2022-10-18T19:47:18.514Z,87.49
2022-10-18T19:49:48.487Z,88.70
2022-10-18T19:52:18.688Z,88.69
2022-10-18T19:54:48.751Z,88.34
2022-10-18T19:57:16.573Z,88.01
2022-10-18T19:59:44.588Z,87.17
2022-10-18T20:02:14.165Z,87.63
2022-10-18T20:04:41.926Z,88.91
2022-10-18T20:07:11.362Z,89.12
2022-10-18T20:09:40.761Z,88.46
2022-10-18T20:12:09.758Z,86.72
2022-10-18T20:14:37.505Z,88.33
2022-10-18T20:17:06.157Z,87.58
2022-10-18T20:19:33.917Z,86.62
2022-10-18T20:22:01.659Z,87.42
2022-10-18T20:24:30.889Z,89.01
2022-10-18T20:26:58.634Z,90.72
2022-10-18T20:29:26.432Z,91.63
2022-10-18T20:31:55.588Z,92.40
2022-10-18T20:34:25.847Z,91.44
2022-10-18T20:36:54.690Z,90.03
2022-10-18T20:39:22.699Z,89.92
2022-10-18T20:41:51.860Z,90.86
2022-10-18T20:44:20.803Z,90.13
2022-10-18T20:46:48.548Z,88.99
2022-10-18T20:49:17.090Z,89.02
2022-10-18T20:51:45.361Z,90.12
2022-10-18T20:54:13.141Z,90.06
2022-10-18T20:56:41.254Z,89.41
2022-10-18T20:59:11.413Z,88.79
2022-10-18T21:01:39.779Z,90.18
2022-10-18T21:04:10.090Z,91.03
2022-10-18T21:06:40.868Z,91.98
2022-10-18T21:09:12.667Z,91.66
2022-10-18T21:11:44.621Z,90.19
2022-10-18T21:14:18.525Z,89.99
2022-10-18T21:16:47.258Z,90.03
2022-10-18T21:19:18.629Z,90.88
2022-10-18T21:21:51.881Z,91.74
2022-10-18T21:24:23.868Z,92.33
2022-10-18T21:26:52.509Z,96.44
2022-10-18T21:29:22.952Z,99.02
2022-10-18T21:31:55.021Z,98.48
2022-10-18T21:34:22.915Z,99.44
2022-10-18T21:36:51.070Z,99.77
2022-10-18T21:39:38.876Z,99.04
2022-10-18T21:42:12.222Z,98.36
2022-10-18T21:44:41.390Z,98.59
2022-10-18T21:47:15.548Z,97.73
2022-10-18T21:49:43.258Z,97.69
2022-10-18T21:52:12.075Z,97.46
2022-10-18T21:54:39.791Z,97.11
2022-10-18T21:57:07.573Z,97.43
2022-10-18T21:59:35.315Z,95.97
2022-10-18T22:02:04.448Z,95.81
2022-10-18T22:04:35.967Z,97.46
2022-10-18T22:07:04.752Z,95.25
2022-10-18T22:09:32.656Z,95.57
2022-10-18T22:12:00.483Z,94.76
2022-10-18T22:14:28.298Z,95.97
2022-10-18T22:16:56.080Z,95.37
2022-10-18T22:19:26.365Z,95.47
2022-10-18T22:21:54.215Z,95.76
2022-10-18T22:24:21.927Z,95.14
2022-10-18T22:26:50.997Z,95.79
2022-10-18T22:29:21.189Z,96.75
2022-10-18T22:31:52.110Z,96.76
2022-10-18T22:34:24.140Z,95.44
2022-10-18T22:36:53.823Z,95.31
2022-10-18T22:39:21.900Z,95.46
2022-10-18T22:41:55.504Z,95.72
2022-10-18T22:44:23.653Z,95.80
2022-10-18T22:46:51.441Z,95.47
2022-10-18T22:49:19.230Z,95.02
2022-10-18T22:51:46.980Z,95.79
2022-10-18T22:54:16.245Z,95.20
2022-10-18T22:56:44.042Z,95.17
2022-10-18T22:59:11.832Z,95.44
2022-10-18T23:01:39.575Z,95.02
2022-10-18T23:04:08.600Z,94.45
2022-10-18T23:06:38.948Z,94.20
2022-10-18T23:09:10.264Z,93.79
2022-10-18T23:11:39.339Z,93.08
2022-10-18T23:14:07.504Z,92.82
2022-10-18T23:16:35.577Z,92.82
2022-10-18T23:19:04.145Z,92.43
2022-10-18T23:21:34.250Z,92.35
2022-10-18T23:24:02.159Z,91.70
2022-10-18T23:26:30.667Z,90.91
2022-10-18T23:29:01.399Z,90.85
2022-10-18T23:31:32.138Z,90.84
2022-10-18T23:34:04.587Z,91.80
2022-10-18T23:36:35.899Z,92.97
2022-10-18T23:39:04.946Z,93.46
2022-10-18T23:41:33.293Z,90.74
2022-10-18T23:44:02.590Z,90.98
2022-10-18T23:46:30.346Z,91.92
2022-10-18T23:48:58.092Z,92.81
2022-10-18T23:51:25.832Z,92.72
2022-10-18T23:53:53.880Z,92.57
2022-10-18T23:56:21.692Z,93.00
2022-10-18T23:58:49.446Z,92.96
